createdAt,value
2023-04-16T00:02:14.168Z,98350.06
2023-04-16T00:07:39.066Z,98351.75
2023-04-16T00:13:06.058Z,98339.19
2023-04-16T00:18:31.049Z,98344.84
2023-04-16T00:23:55.062Z,98353.91
2023-04-16T00:29:23.059Z,98336.53
2023-04-16T00:34:47.064Z,98328.94
2023-04-16T00:40:12.128Z,98332.09
2023-04-16T00:45:39.066Z,98323.63
2023-04-16T00:51:05.060Z,98329.84
2023-04-16T00:56:31.067Z,98326.47
2023-04-16T01:01:59.208Z,98323.94
2023-04-16T01:07:23.087Z,98317.16
2023-04-16T01:12:48.080Z,98326.50
2023-04-16T01:18:15.086Z,98324.97
2023-04-16T01:23:43.104Z,98333.00
2023-04-16T01:29:07.295Z,98333.28
2023-04-16T01:34:32.083Z,98322.19
2023-04-16T01:39:59.123Z,98337.41
2023-04-16T01:45:24.115Z,98340.25
2023-04-16T01:50:49.091Z,98343.09
2023-04-16T01:56:17.112Z,98333.09
2023-04-16T02:01:41.105Z,98345.25
2023-04-16T02:07:06.100Z,98338.91
2023-04-16T02:12:33.100Z,98338.75
2023-04-16T02:18:02.145Z,98350.16
2023-04-16T02:23:27.103Z,98350.59
2023-04-16T02:28:55.104Z,98349.75
2023-04-16T02:34:27.092Z,98357.94
2023-04-16T02:39:53.106Z,98352.59
2023-04-16T02:45:22.142Z,98360.34
2023-04-16T02:50:47.167Z,98359.66
2023-04-16T02:56:12.094Z,98354.28
2023-04-16T03:01:40.144Z,98365.00
2023-04-16T03:07:04.115Z,98354.28
2023-04-16T03:12:29.120Z,98351.06
2023-04-16T03:17:56.180Z,98351.75
2023-04-16T03:23:27.126Z,98345.00
2023-04-16T03:28:52.135Z,98357.69
2023-04-16T03:34:21.126Z,98363.59
2023-04-16T03:39:46.130Z,98377.72
2023-04-16T03:45:11.168Z,98390.13
2023-04-16T03:50:40.162Z,98396.38
2023-04-16T03:56:06.169Z,98399.03
2023-04-16T04:01:31.128Z,98409.63
2023-04-16T04:06:58.170Z,98419.50
2023-04-16T04:12:23.177Z,98409.91
2023-04-16T04:17:47.204Z,98425.44
2023-04-16T04:23:21.156Z,98426.41
2023-04-16T04:28:46.205Z,98439.69
2023-04-16T04:34:11.168Z,98445.63
2023-04-16T04:39:39.168Z,98453.66
2023-04-16T04:45:04.161Z,98456.19
2023-04-16T04:50:29.169Z,98470.31
2023-04-16T04:56:01.744Z,98464.94
2023-04-16T05:01:34.244Z,98484.41
2023-04-16T05:06:58.196Z,98485.28
2023-04-16T05:12:26.210Z,98500.22
2023-04-16T05:17:50.257Z,98499.97
2023-04-16T05:23:22.316Z,98517.44
2023-04-16T05:28:50.186Z,98521.53
2023-04-16T05:34:14.240Z,98522.25
2023-04-16T05:39:39.232Z,98534.38
2023-04-16T05:45:07.216Z,98540.34
2023-04-16T05:50:32.201Z,98547.09
2023-04-16T05:55:56.239Z,98556.69
2023-04-16T06:01:24.231Z,98555.03
2023-04-16T06:06:48.218Z,98547.97
2023-04-16T06:12:14.232Z,98556.28
2023-04-16T06:17:41.306Z,98567.72
2023-04-16T06:23:12.207Z,98567.16
2023-04-16T06:28:37.212Z,98578.72
2023-04-16T06:34:04.244Z,98579.28
2023-04-16T06:39:29.235Z,98586.06
2023-04-16T06:44:53.241Z,98586.63
2023-04-16T06:50:21.234Z,98590.31
2023-04-16T06:55:45.240Z,98596.53
2023-04-16T07:01:10.348Z,98602.31
2023-04-16T07:06:38.287Z,98605.00
2023-04-16T07:12:04.241Z,98612.50
2023-04-16T07:17:28.343Z,98621.94
2023-04-16T07:23:02.249Z,98631.56
2023-04-16T07:28:27.267Z,98637.75
2023-04-16T07:33:51.265Z,98632.53
2023-04-16T07:39:20.252Z,98636.34
2023-04-16T07:44:45.284Z,98630.69
2023-04-16T07:50:10.287Z,98635.63
2023-04-16T07:55:37.268Z,98640.84
2023-04-16T08:01:02.294Z,98644.53
2023-04-16T08:06:26.269Z,98636.31
2023-04-16T08:11:56.280Z,98649.44
2023-04-16T08:17:20.282Z,98652.28
2023-04-16T08:22:51.281Z,98656.38
2023-04-16T08:28:19.269Z,98655.75
2023-04-16T08:33:43.266Z,98658.59
2023-04-16T08:39:08.492Z,98670.75
2023-04-16T08:44:41.304Z,98682.63
2023-04-16T08:50:09.324Z,98693.22
2023-04-16T08:55:37.323Z,98698.34
2023-04-16T09:01:05.293Z,98708.34
2023-04-16T09:06:31.298Z,98707.41
2023-04-16T09:11:59.296Z,98699.47
2023-04-16T12:51:27.442Z,98833.78
2023-04-16T12:56:52.459Z,98834.38
2023-04-16T13:02:17.658Z,98835.75
2023-04-16T13:07:45.424Z,98846.78
2023-04-16T13:13:09.534Z,98846.94
2023-04-16T13:18:35.447Z,98849.94
2023-04-16T13:24:03.474Z,98852.75
2023-04-16T13:29:28.479Z,98866.81
2023-04-16T13:34:53.484Z,98863.44
2023-04-16T13:40:22.463Z,98851.84
2023-04-16T13:45:46.455Z,98855.25
2023-04-16T13:51:12.436Z,98857.28
2023-04-16T13:56:39.489Z,98864.03
2023-04-16T14:02:05.491Z,98873.50
2023-04-16T14:07:33.506Z,98863.72
2023-04-16T14:13:01.447Z,98864.59
2023-04-16T14:18:27.483Z,98868.41
2023-04-16T14:29:19.460Z,98878.19
2023-04-16T14:34:44.460Z,98878.09
2023-04-16T14:40:08.585Z,98877.53
2023-04-16T14:45:37.502Z,98889.97
2023-04-16T14:51:02.505Z,98899.97
2023-04-16T14:56:28.473Z,98902.78
2023-04-16T15:01:55.501Z,98905.41
2023-04-16T19:05:03.588Z,99065.34
2023-04-16T19:10:28.612Z,99071.94
2023-04-16T19:15:53.642Z,99068.84
2023-04-16T19:21:21.632Z,99061.34
2023-04-16T19:26:45.635Z,99064.16
2023-04-16T19:32:11.416Z,99066.56
2023-04-16T19:37:39.635Z,99072.06
2023-04-16T19:43:04.656Z,99071.41
2023-04-16T19:48:29.628Z,99057.69
2023-04-16T19:53:57.640Z,99046.63
2023-04-16T19:59:21.650Z,99027.91
2023-04-16T20:04:55.605Z,99033.63
2023-04-16T20:10:23.621Z,99020.03
2023-04-16T20:15:47.650Z,99023.06
2023-04-16T20:21:13.656Z,99023.13
2023-04-16T20:26:43.695Z,99032.69
2023-04-16T20:32:11.460Z,99028.56
2023-04-16T20:37:35.620Z,99047.41
2023-04-16T20:43:03.693Z,99053.50
2023-04-16T20:48:27.641Z,99060.81
2023-04-16T20:53:52.724Z,99056.56
2023-04-16T20:59:19.726Z,99061.81
